Historyczne dane pomiarowe

Dodano dane terminowe – wersja testowa.

Dane z okresu 1951-2019

Wersja bazy: 1.34 [2019-03-16, lista zmian], aktualizacja planowana na 2019-04-15

Dane meteo z obszaru Polski uzyskane na podstawie danych udostępnionych przez Instytut Meteorologii i Gospodarki Wodnej – Państwowy Instytut Badawczy.

 

Wybierz Datę:    

       

TemperaturaWilgotnośćWiatrCiśnienieOpadyŚniegCzas trwania zjawisk
 Stacja t tx tn tng RH VA  wxwx mslp ppp RRR   cm mm wxwxwxwxwxwxwx
1983-08-14 13.8 17.1 10.0- 83.3- 4.0 3.0---- 0.0------------
1983-08-13 16.0 21.3 11.8- 84.0- 6.7 3.3---- 7.9------------
1983-08-12 19.2 25.5 15.8- 76.0- 2.7 2.3---- 1.0------------
1983-08-11 19.6 26.5 14.2- 78.0- 1.0 1.3---- 0.0------------
1983-08-10 18.8 24.8 13.7- 82.8- 6.0 3.0---- 0.0------------
1983-08-09 18.0 25.5 14.2- 87.8- 4.0 3.0---- 8.2------------
1983-08-08 18.4 22.8 14.4- 84.0- 3.3 3.0---- 2.6------------
1983-08-07 16.0 19.8 14.4- 95.8- 7.3 1.0---- 3.7------------
1983-08-06 16.2 20.8 12.7- 84.3- 6.0 1.0---- 0.0------------
1983-08-05 14.0 19.3 9.8- 84.3- 6.0 1.0---- 0.0------------
1983-08-04 12.3 17.5 11.2- 93.0- 8.0 5.0---- 3.6------------
1983-08-03 19.4 26.0 16.3- 87.3- 6.7 1.3---- 8.2------------
1983-08-02 19.5 28.3 12.6- 86.8- 4.0 2.0---- 4.0------------
1983-08-01 19.4 27.6 10.3- 75.0- 0.0 3.0---- 0.0------------
1983-07-31 17.2 21.9 9.8- 78.5- 0.0 1.7---- 0.0------------
1983-07-30 18.3 22.3 15.4- 85.8- 5.7 3.7---- 0.2------------
1983-07-29 19.8 24.6 14.0- 72.0- 1.3 1.3---- 1.6------------
1983-07-28 22.9 28.5 17.4- 72.5- 2.7 3.3---- 0.0------------
1983-07-27 23.2 30.7 14.7- 63.3- 2.0 1.0---- 0.0------------
1983-07-26 20.6 26.7 12.2- 66.8- 1.7 2.7---- 0.0------------
1983-07-25 16.1 21.1 12.2- 79.0- 6.0 1.7---- 0.0------------
1983-07-24 17.0 20.8 13.7- 89.5- 8.0 1.3---- 0.5------------
1983-07-23 17.2 22.1 13.2- 75.0- 4.7 4.7---- 0.0------------
1983-07-22 13.1 15.1 9.5- 91.5- 8.0 9.0---- 0.0------------
1983-07-21 13.2 16.7 9.2- 78.3- 5.0 6.3---- 0.0------------
1983-07-20 16.5 24.8 12.0- 87.8- 7.0 5.7---- 2.3------------
1983-07-19 22.5 28.8 14.2- 74.5- 1.0 1.7---- 3.1------------
1983-07-18 21.4 28.5 13.1- 76.3- 0.0 1.3---- 0.4------------
1983-07-17 21.3 26.0 16.1- 82.5- 1.3 1.7---- 0.0------------
1983-07-16 20.7 27.5 13.8- 71.3- 0.0 2.3---- 0.0------------
1983-07-15 19.2 24.8 13.9- 80.8- 0.0 2.0---- 0.0------------
1983-07-14 17.0 20.3 15.3- 98.0- 8.0 2.0---- 14.8------------
1983-07-13 18.8 24.8 15.7- 83.5- 6.0 5.3---- 51.7------------
1983-07-12 17.0 22.8 15.4- 94.0- 6.3 3.7---- 8.4------------
1983-07-11 19.0 25.1 14.2- 80.5- 4.3 4.3---- 20.9------------
1983-07-10 21.1 28.1 13.1- 71.5- 1.3 1.7---- 0.2------------
1983-07-09 19.8 27.9 10.3- 73.3- 1.0 1.3---- 0.0------------
1983-07-08 19.6 26.7 9.8- 67.8- 0.0 0.7---- 0.0------------
1983-07-07 20.0 27.5 12.0- 73.8- 0.0 1.7---- 0.0------------
1983-07-06 20.4 27.3 11.0- 82.3- 0.0 0.7---- 0.0------------
1983-07-05 19.7 27.3 11.8- 73.8- 0.0 2.0---- 0.0------------
1983-07-04 19.0 25.7 10.2- 82.0- 0.7 1.0---- 0.0------------
1983-07-03 18.2 24.0 11.2- 77.5- 0.3 1.3---- 0.0------------
1983-07-02 18.6 23.5 14.4- 83.5- 8.0 4.7---- 0.0------------
1983-07-01 19.1 26.0 10.5- 83.8- 0.0 1.0---- 0.0------------
1983-06-30 15.2 22.5 5.8- 75.3- 0.7 3.0---- 0.0------------
1983-06-29 15.0 19.7 10.3- 71.5- 0.3 2.3---- 0.0------------
1983-06-28 16.0 19.0 14.4- 91.8- 8.0 2.0---- 2.8------------
1983-06-27 19.9 26.9 13.4- 83.0- 3.0 3.3---- 9.8------------
1983-06-26 18.6 24.0 15.9- 88.5- 6.7 2.0---- 9.8------------
1983-06-25 20.8 27.5 12.3- 63.5- 0.0 2.3---- 0.0------------
1983-06-24 17.0 26.1 5.5- 66.5- 0.0 1.3---- 0.0------------
1983-06-23 13.7 20.5 5.0- 70.5- 0.0 1.7---- 0.0------------
1983-06-22 15.7 22.3 11.3- 63.3- 0.0 3.7---- 0.0------------
1983-06-21 18.8 24.9 12.2- 77.5- 0.7 2.0---- 0.0------------
1983-06-20 17.0 20.8 15.1- 95.5- 7.0 1.3---- 2.0------------
1983-06-19 15.0 18.5 12.0- 96.8- 8.0 4.7---- 12.7------------
1983-06-18 11.9 14.2 10.0- 94.3- 8.0 2.7---- 32.2------------
1983-06-17 12.6 15.7 10.6- 78.8- 7.0 4.3---- 10.7------------
1983-06-16 11.8 14.7 9.8- 91.8- 8.0 3.3---- 0.1------------
445.0 ms

 

Źródłem pochodzenia danych jest Instytut Meteorologii i Gospodarki Wodnej – Państwowy Instytut Badawczy. Dane Instytutu Meteorologii i Gospodarki Wodnej – Państwowego Instytutu Badawczego zostały przetworzone.

Dane źródłowe można odnaleźć na stronie https://dane.imgw.pl